Time;durP1;ratioP1;P1;durP2;ratioP2;P2;SDS_P1;SDS_P2;PMS_P1;PMS_P2;Temp;Humidity;BMP_temperature;BMP_pressure;BME280_temperature;BME280_humidity;BME280_pressure;Samples;Min_cycle;Max_cycle;Signal;HPM_P1;HPM_P2
2021/03/02 00:02:03;;;;;;;19.33;11.60;;;;;;;4.07;93.28;101682.67;639332;223;24933;-77
2021/03/02 00:04:31;;;;;;;17.77;11.27;;;;;;;4.02;93.17;101687.64;638124;224;24925;-77
2021/03/02 00:06:59;;;;;;;24.03;12.27;;;;;;;4.01;93.58;101683.41;640377;220;28084;-77
2021/03/02 00:09:27;;;;;;;24.80;12.20;;;;;;;3.95;93.62;101686.26;622137;229;24906;-75
2021/03/02 00:11:55;;;;;;;16.60;10.63;;;;;;;3.95;94.03;101697.38;618521;230;24982;-76
2021/03/02 00:14:23;;;;;;;22.37;11.90;;;;;;;3.97;94.08;101693.00;636229;224;24932;-77
2021/03/02 00:16:55;;;;;;;22.53;13.20;;;;;;;3.98;93.71;101686.12;636868;223;28049;-76
2021/03/02 00:19:24;;;;;;;17.27;10.97;;;;;;;3.88;93.96;101686.50;638389;224;24898;-77
2021/03/02 00:21:52;;;;;;;21.50;11.77;;;;;;;3.94;94.05;101687.13;616114;230;24947;-78
2021/03/02 00:24:21;;;;;;;17.40;10.90;;;;;;;3.90;94.33;101689.01;633877;225;24863;-77
2021/03/02 00:26:49;;;;;;;23.43;14.07;;;;;;;4.04;94.04;101695.68;637637;221;24889;-77
2021/03/02 00:29:17;;;;;;;19.57;11.20;;;;;;;4.24;93.74;101692.25;635434;223;24940;-77
2021/03/02 00:31:45;;;;;;;22.25;13.95;;;;;;;4.28;92.59;101686.50;630879;225;32804;-76
2021/03/02 00:34:13;;;;;;;21.20;11.50;;;;;;;4.13;93.32;101690.59;634819;225;23746;-77
2021/03/02 00:36:41;;;;;;;18.87;12.30;;;;;;;4.08;93.96;101689.52;626136;229;25011;-77
2021/03/02 00:39:08;;;;;;;17.50;11.60;;;;;;;4.30;93.18;101693.70;623878;228;28135;-78
2021/03/02 00:41:36;;;;;;;20.70;12.80;;;;;;;4.35;93.11;101690.46;627705;226;24975;-76
2021/03/02 00:44:05;;;;;;;18.70;11.03;;;;;;;4.47;92.80;101691.20;628622;227;24993;-77
2021/03/02 00:46:33;;;;;;;18.67;12.50;;;;;;;4.57;92.29;101693.75;628452;228;24924;-78
2021/03/02 00:49:01;;;;;;;23.33;10.20;;;;;;;4.61;91.40;101690.58;623496;229;25264;-77
2021/03/02 00:51:30;;;;;;;17.47;11.00;;;;;;;4.65;90.70;101690.84;638906;224;24910;-77
2021/03/02 00:53:58;;;;;;;18.67;12.43;;;;;;;4.85;91.29;101692.48;634862;222;32777;-76
2021/03/02 00:56:26;;;;;;;17.50;10.70;;;;;;;4.83;90.99;101689.98;623123;229;23818;-77
2021/03/02 00:58:54;;;;;;;17.47;11.53;;;;;;;4.71;91.00;101685.39;639402;224;24905;-78
2021/03/02 01:01:21;;;;;;;15.70;11.20;;;;;;;4.66;91.41;101690.77;637341;224;24975;-78
2021/03/02 01:03:49;;;;;;;17.60;11.03;;;;;;;4.66;92.26;101686.90;620371;229;24974;-77
2021/03/02 01:06:17;;;;;;;19.80;11.20;;;;;;;4.70;91.82;101688.42;626734;225;24880;-76
2021/03/02 01:08:46;;;;;;;17.20;10.97;;;;;;;4.81;91.04;101692.25;615471;229;25277;-78
2021/03/02 01:11:13;;;;;;;18.57;10.83;;;;;;;4.66;90.45;101680.45;618460;229;24960;-78
2021/03/02 01:13:41;;;;;;;19.10;11.30;;;;;;;4.54;91.28;101687.91;627474;225;27068;-76
2021/03/02 01:16:09;;;;;;;19.13;11.17;;;;;;;4.39;91.50;101688.16;622978;228;24939;-78
2021/03/02 01:18:38;;;;;;;18.10;10.40;;;;;;;4.46;91.77;101681.81;626583;228;24989;-78
2021/03/02 01:21:06;;;;;;;16.43;10.97;;;;;;;4.44;90.91;101686.20;634972;226;24919;-78
2021/03/02 01:23:34;;;;;;;18.70;11.43;;;;;;;4.38;91.11;101678.76;636825;225;24887;-78
2021/03/02 01:26:02;;;;;;;17.20;11.00;;;;;;;4.16;90.90;101685.30;617205;229;25037;-78
2021/03/02 01:28:30;;;;;;;18.97;10.97;;;;;;;3.90;92.94;101692.03;618559;230;24966;-77
2021/03/02 01:30:58;;;;;;;18.60;10.20;;;;;;;3.84;94.03;101685.42;636694;224;24959;-76
2021/03/02 01:33:26;;;;;;;18.40;10.83;;;;;;;3.80;93.09;101682.16;639091;224;24953;-77
2021/03/02 01:35:54;;;;;;;16.60;11.40;;;;;;;4.05;93.11;101682.36;615835;229;24987;-77
2021/03/02 01:38:22;;;;;;;17.37;11.53;;;;;;;4.51;91.86;101678.59;630220;225;32861;-77
2021/03/02 01:40:50;;;;;;;17.30;11.70;;;;;;;4.45;90.75;101680.14;638282;225;23765;-77
2021/03/02 01:43:18;;;;;;;17.10;10.73;;;;;;;4.43;89.95;101676.34;635012;225;31432;-77
2021/03/02 01:45:46;;;;;;;16.10;9.80;;;;;;;4.26;89.89;101674.16;637775;225;24999;-77
2021/03/02 01:48:14;;;;;;;16.53;10.40;;;;;;;3.98;90.81;101679.69;636088;222;27063;-78
2021/03/02 01:50:42;;;;;;;14.60;9.90;;;;;;;3.86;92.50;101690.88;637545;224;24906;-77
2021/03/02 01:53:10;;;;;;;17.97;10.67;;;;;;;3.81;92.67;101687.68;638774;225;24957;-76
2021/03/02 01:55:38;;;;;;;18.70;10.90;;;;;;;3.99;91.98;101683.47;637043;224;24967;-76
2021/03/02 01:58:06;;;;;;;15.50;9.83;;;;;;;4.04;91.40;101685.38;618342;227;24962;-77
2021/03/02 02:00:34;;;;;;;17.00;10.30;;;;;;;4.27;90.98;101679.69;632728;225;28120;-76
2021/03/02 02:03:09;;;;;;;16.20;10.10;;;;;;;4.21;90.23;101676.91;631257;225;24890;-75
2021/03/02 02:05:38;;;;;;;16.70;10.27;;;;;;;3.80;91.38;101678.72;638994;224;27111;-77
2021/03/02 02:08:06;;;;;;;15.83;9.50;;;;;;;3.54;92.34;101681.13;635159;224;24916;-77
2021/03/02 02:10:35;;;;;;;17.27;10.90;;;;;;;3.44;93.29;101687.54;638383;224;24892;-77
2021/03/02 02:13:04;;;;;;;14.50;9.50;;;;;;;3.43;93.50;101689.27;618979;230;24950;-77
2021/03/02 02:15:33;;;;;;;18.60;9.73;;;;;;;3.54;94.00;101684.53;619455;229;27112;-76
2021/03/02 02:18:01;;;;;;;16.83;9.27;;;;;;;3.66;93.83;101678.05;623156;226;24944;-77
2021/03/02 02:20:31;;;;;;;18.40;10.13;;;;;;;3.72;93.10;101679.06;624343;228;24938;-75
2021/03/02 02:23:04;;;;;;;15.70;9.60;;;;;;;3.71;92.70;101675.27;636421;225;30521;-77
2021/03/02 02:25:41;;;;;;;14.80;9.33;;;;;;;3.50;93.25;101678.27;621265;228;24989;-77
2021/03/02 02:28:09;;;;;;;20.83;12.50;;;;;;;3.39;93.81;101684.33;636978;225;25294;-77
2021/03/02 02:30:37;;;;;;;17.53;9.50;;;;;;;3.60;93.92;101682.59;620777;229;25045;-77
2021/03/02 02:33:06;;;;;;;15.60;9.60;;;;;;;3.74;92.54;101672.55;614349;230;24957;-77
2021/03/02 02:35:34;;;;;;;20.20;9.90;;;;;;;3.46;93.10;101675.00;624818;228;24943;-77
2021/03/02 02:38:02;;;;;;;14.70;9.30;;;;;;;3.24;94.17;101685.34;614430;229;26110;-77
2021/03/02 02:40:30;;;;;;;17.33;9.60;;;;;;;3.21;94.38;101680.75;622249;230;26021;-77
2021/03/02 02:42:58;;;;;;;15.00;9.23;;;;;;;3.17;94.33;101686.92;633961;225;24940;-76
2021/03/02 02:45:26;;;;;;;17.90;10.60;;;;;;;3.19;94.49;101690.26;621628;229;24931;-77
2021/03/02 02:47:54;;;;;;;18.33;10.40;;;;;;;3.32;94.17;101693.17;618522;229;24935;-77
2021/03/02 02:50:22;;;;;;;17.20;10.43;;;;;;;3.20;94.28;101695.78;636053;225;24886;-77
2021/03/02 02:52:50;;;;;;;15.77;10.10;;;;;;;3.02;94.37;101699.93;616025;229;24974;-76
2021/03/02 02:55:18;;;;;;;12.83;8.90;;;;;;;2.72;95.42;101698.55;635496;225;25005;-77
2021/03/02 02:57:46;;;;;;;16.70;10.07;;;;;;;2.86;94.39;101694.55;637834;225;24957;-76
2021/03/02 03:00:15;;;;;;;17.80;9.00;;;;;;;2.88;94.74;101693.20;617075;229;24993;-77
2021/03/02 03:02:43;;;;;;;16.60;9.57;;;;;;;2.94;94.34;101687.36;635978;225;24932;-76
2021/03/02 03:05:12;;;;;;;14.33;8.70;;;;;;;2.80;94.66;101692.20;635487;225;24910;-77
2021/03/02 03:07:40;;;;;;;17.70;9.63;;;;;;;2.93;94.16;101685.69;621518;229;25005;-76
2021/03/02 03:10:09;;;;;;;17.35;10.80;;;;;;;3.04;93.88;101675.00;629032;224;43479;-76
2021/03/02 03:12:38;;;;;;;20.63;11.10;;;;;;;2.93;93.93;101682.29;638433;224;23780;-76
2021/03/02 03:15:08;;;;;;;19.30;9.80;;;;;;;2.90;94.98;101688.39;637547;223;24979;-77
2021/03/02 03:17:37;;;;;;;16.77;9.90;;;;;;;2.90;94.44;101681.97;639141;223;28082;-77
2021/03/02 03:20:05;;;;;;;15.50;10.30;;;;;;;2.83;93.71;101683.12;637555;224;26011;-77
2021/03/02 03:22:33;;;;;;;15.93;9.87;;;;;;;2.84;94.19;101682.66;638777;224;24958;-77
2021/03/02 03:25:01;;;;;;;13.77;9.90;;;;;;;2.96;94.86;101681.75;636371;224;24908;-77
2021/03/02 03:27:29;;;;;;;14.43;9.33;;;;;;;3.16;93.84;101677.54;625401;226;24973;-76
2021/03/02 03:29:57;;;;;;;14.40;8.80;;;;;;;3.19;93.40;101673.09;625396;229;24982;-76
2021/03/02 03:32:25;;;;;;;17.70;9.80;;;;;;;3.26;93.29;101677.56;622610;229;24986;-77
2021/03/02 03:34:53;;;;;;;18.13;10.40;;;;;;;3.33;92.89;101682.83;636384;225;27024;-76
2021/03/02 03:37:21;;;;;;;16.13;10.07;;;;;;;3.02;92.06;101675.97;622793;229;24970;-77
2021/03/02 03:39:49;;;;;;;16.70;8.77;;;;;;;2.83;92.09;101674.58;619027;229;24965;-77
2021/03/02 03:42:17;;;;;;;14.67;8.90;;;;;;;2.70;92.84;101678.06;618581;229;24970;-76
2021/03/02 03:44:45;;;;;;;15.77;10.37;;;;;;;2.71;93.27;101685.31;623777;229;24994;-76
2021/03/02 03:47:12;;;;;;;21.43;9.83;;;;;;;2.66;94.04;101689.32;621093;230;24988;-77
2021/03/02 03:49:40;;;;;;;15.63;10.00;;;;;;;2.60;94.33;101692.13;635963;225;24902;-77
2021/03/02 03:52:08;;;;;;;15.87;9.80;;;;;;;2.71;94.58;101697.70;637665;224;24890;-77
2021/03/02 03:54:36;;;;;;;18.42;10.88;;;;;;;3.03;93.93;101687.91;632383;225;32759;-77
2021/03/02 03:57:04;;;;;;;16.37;10.30;;;;;;;2.83;92.99;101686.97;638336;220;23746;-77
2021/03/02 03:59:32;;;;;;;17.50;9.77;;;;;;;2.66;94.42;101695.73;635478;225;24936;-77
2021/03/02 04:02:01;;;;;;;17.53;10.33;;;;;;;2.57;94.66;101692.26;639164;224;24923;-77
2021/03/02 04:04:28;;;;;;;16.93;10.13;;;;;;;2.54;94.27;101695.78;638406;224;25408;-77
2021/03/02 04:06:56;;;;;;;16.40;9.57;;;;;;;2.53;94.64;101697.09;624641;226;24889;-78
2021/03/02 04:09:24;;;;;;;15.23;9.30;;;;;;;2.52;95.32;101701.84;626636;227;25077;-77
2021/03/02 04:11:52;;;;;;;17.90;9.87;;;;;;;2.55;94.93;101705.16;637434;224;24910;-76
2021/03/02 04:14:20;;;;;;;13.97;9.10;;;;;;;2.50;94.54;101702.34;638083;224;24972;-77
2021/03/02 04:16:48;;;;;;;14.80;8.80;;;;;;;2.68;94.35;101701.69;624837;229;24966;-75
2021/03/02 04:19:16;;;;;;;14.00;9.10;;;;;;;2.55;94.62;101703.03;614345;230;28123;-77
2021/03/02 04:21:44;;;;;;;15.50;9.13;;;;;;;2.39;94.76;101698.88;617291;230;24969;-77
2021/03/02 04:24:12;;;;;;;13.90;9.23;;;;;;;2.48;95.18;101702.41;616848;230;24993;-76
2021/03/02 04:26:40;;;;;;;15.10;9.80;;;;;;;2.47;95.29;101706.31;620013;228;24980;-76
2021/03/02 04:29:08;;;;;;;16.80;9.63;;;;;;;2.55;95.05;101710.73;624466;228;24933;-77
2021/03/02 04:31:36;;;;;;;16.07;9.70;;;;;;;2.37;94.66;101703.24;626202;228;24937;-76
2021/03/02 04:34:04;;;;;;;14.13;9.03;;;;;;;2.28;95.03;101711.30;627863;225;24909;-77
2021/03/02 04:36:31;;;;;;;16.57;9.70;;;;;;;2.30;95.69;101715.48;620812;229;25158;-78
2021/03/02 04:38:59;;;;;;;17.40;9.73;;;;;;;2.42;95.64;101720.62;634162;224;27153;-77
2021/03/02 04:41:27;;;;;;;14.60;8.63;;;;;;;2.40;95.24;101707.45;637100;224;27110;-78
2021/03/02 04:43:55;;;;;;;14.80;10.47;;;;;;;2.20;95.38;101716.69;635110;225;24928;-77
2021/03/02 04:46:23;;;;;;;18.47;9.27;;;;;;;2.21;94.96;101711.94;621084;229;30460;-77
2021/03/02 04:48:51;;;;;;;15.17;8.87;;;;;;;2.16;95.20;101715.58;616775;229;24984;-77
2021/03/02 04:51:19;;;;;;;14.90;9.17;;;;;;;2.21;95.38;101722.21;636862;225;24936;-78
2021/03/02 04:53:47;;;;;;;20.53;9.53;;;;;;;2.18;95.90;101724.89;619756;229;24953;-77
2021/03/02 04:56:15;;;;;;;17.30;11.00;;;;;;;2.43;94.87;101712.47;617858;228;32981;-76
2021/03/02 04:58:43;;;;;;;14.37;10.60;;;;;;;2.21;94.98;101725.22;623305;229;23867;-77
2021/03/02 05:01:11;;;;;;;17.32;10.50;;;;;;;2.28;94.60;101722.40;613949;230;33154;-78
2021/03/02 05:03:38;;;;;;;16.80;10.10;;;;;;;2.09;95.67;101731.62;617339;230;23806;-77
2021/03/02 05:06:06;;;;;;;16.57;9.50;;;;;;;2.06;96.48;101730.45;631336;222;24979;-77
2021/03/02 05:08:34;;;;;;;13.33;8.70;;;;;;;2.06;96.52;101732.56;619652;229;25005;-77
2021/03/02 05:11:02;;;;;;;15.03;8.70;;;;;;;2.02;97.48;101736.59;620480;229;24974;-77
2021/03/02 05:13:30;;;;;;;14.43;9.50;;;;;;;2.07;97.67;101733.41;619632;229;24978;-77
2021/03/02 05:15:58;;;;;;;18.97;10.27;;;;;;;2.06;97.17;101726.59;615100;229;24985;-76
2021/03/02 05:18:26;;;;;;;18.30;9.80;;;;;;;1.93;97.46;101728.75;617321;229;24989;-77
2021/03/02 05:20:54;;;;;;;19.67;9.03;;;;;;;2.21;96.87;101724.77;630394;224;24918;-76
2021/03/02 05:23:22;;;;;;;18.90;9.83;;;;;;;2.09;96.74;101725.20;625776;228;24960;-76
2021/03/02 05:25:50;;;;;;;13.90;8.50;;;;;;;1.81;95.91;101721.91;615142;229;24951;-76
2021/03/02 05:28:17;;;;;;;15.85;9.78;;;;;;;1.92;96.43;101722.39;628464;225;43556;-77
2021/03/02 05:30:45;;;;;;;14.17;8.40;;;;;;;2.08;97.86;101728.66;638252;225;24197;-76
2021/03/02 05:33:13;;;;;;;16.53;9.70;;;;;;;2.13;97.64;101734.94;635866;225;31300;-77
2021/03/02 05:35:41;;;;;;;14.77;9.17;;;;;;;2.07;97.34;101732.95;617527;229;24943;-76
2021/03/02 05:38:09;;;;;;;17.30;8.83;;;;;;;2.08;97.98;101731.23;635104;224;24892;-77
2021/03/02 05:40:39;;;;;;;19.27;9.77;;;;;;;2.17;97.82;101732.65;617039;228;24941;-77
2021/03/02 05:43:07;;;;;;;15.37;8.50;;;;;;;2.21;97.51;101731.64;634646;224;24931;-76
2021/03/02 05:45:35;;;;;;;16.70;9.60;;;;;;;2.17;97.15;101733.48;622680;229;24977;-76
2021/03/02 05:48:04;;;;;;;13.13;9.00;;;;;;;2.08;96.75;101729.50;630708;225;24895;-76
2021/03/02 05:50:31;;;;;;;14.50;9.10;;;;;;;2.14;97.22;101733.59;614316;229;25078;-76
2021/03/02 05:53:00;;;;;;;14.53;9.60;;;;;;;2.23;97.12;101727.28;637421;224;24942;-77
2021/03/02 05:55:28;;;;;;;14.83;9.47;;;;;;;2.08;96.93;101735.08;639745;224;24907;-77
2021/03/02 05:57:56;;;;;;;13.43;8.80;;;;;;;1.88;97.53;101743.91;639914;220;24915;-76
2021/03/02 06:00:24;;;;;;;15.70;8.53;;;;;;;1.58;98.21;101741.92;639095;224;24875;-77
2021/03/02 06:02:52;;;;;;;16.57;8.53;;;;;;;1.56;98.37;101742.42;615745;227;24946;-77
2021/03/02 06:05:20;;;;;;;12.60;8.40;;;;;;;1.47;98.24;101743.55;625972;226;24892;-77
2021/03/02 06:07:48;;;;;;;17.80;8.70;;;;;;;1.61;98.04;101745.22;638040;220;24930;-77
2021/03/02 06:10:17;;;;;;;15.40;8.30;;;;;;;1.69;98.10;101750.95;639695;224;27050;-77
2021/03/02 06:12:52;;;;;;;15.30;8.93;;;;;;;1.67;99.11;101757.83;625753;229;24961;-77
2021/03/02 06:15:20;;;;;;;15.37;9.00;;;;;;;1.95;98.44;101756.91;636740;225;28038;-77
2021/03/02 06:17:48;;;;;;;13.67;8.70;;;;;;;2.02;97.62;101758.39;636813;221;26061;-76
2021/03/02 06:20:20;;;;;;;12.57;8.57;;;;;;;2.08;97.11;101758.17;637718;225;24922;-77
2021/03/02 06:22:48;;;;;;;21.82;10.80;;;;;;;2.25;96.90;101761.43;630977;224;32760;-77
2021/03/02 06:25:27;;;;;;;17.60;10.90;;;;;;;2.31;96.14;101758.66;631098;225;32898;-77
2021/03/02 06:27:55;;;;;;;16.00;9.47;;;;;;;2.13;96.17;101761.44;636986;221;23806;-77
2021/03/02 06:30:23;;;;;;;14.43;8.10;;;;;;;2.19;96.81;101768.91;637567;225;24961;-76
2021/03/02 06:32:52;;;;;;;14.97;8.73;;;;;;;2.24;96.98;101769.58;636984;225;24943;-77
2021/03/02 06:35:30;;;;;;;13.93;9.13;;;;;;;2.16;96.93;101770.30;617997;229;24986;-77
2021/03/02 06:37:58;;;;;;;12.97;8.80;;;;;;;2.18;97.17;101770.25;626333;228;24994;-77
2021/03/02 06:40:44;;;;;;;14.00;7.80;;;;;;;2.27;97.18;101773.34;623882;229;24977;-76
2021/03/02 06:43:28;;;;;;;11.77;8.40;;;;;;;2.43;97.08;101771.52;617272;230;24973;-77
2021/03/02 06:45:56;;;;;;;14.47;8.23;;;;;;;2.49;96.58;101767.44;634402;225;24917;-76
2021/03/02 06:48:24;;;;;;;15.80;8.90;;;;;;;2.53;96.24;101780.55;637747;221;24930;-77
2021/03/02 06:50:52;;;;;;;15.10;8.80;;;;;;;2.54;96.97;101783.09;615915;229;24953;-77
2021/03/02 06:53:20;;;;;;;14.97;9.00;;;;;;;2.72;96.51;101781.58;634064;225;24971;-76
2021/03/02 06:55:47;;;;;;;15.53;10.40;;;;;;;2.91;95.82;101784.30;616990;229;33093;-77
2021/03/02 06:58:18;;;;;;;13.60;9.13;;;;;;;2.83;96.35;101785.87;635938;224;23832;-77
2021/03/02 07:00:46;;;;;;;17.20;9.97;;;;;;;2.87;96.47;101792.56;637598;224;24919;-78
2021/03/02 07:03:21;;;;;;;14.50;9.57;;;;;;;2.93;96.58;101800.03;639777;224;24960;-77
2021/03/02 07:05:49;;;;;;;17.70;9.67;;;;;;;3.04;96.36;101797.52;638104;224;24908;-77
2021/03/02 07:08:17;;;;;;;16.60;10.10;;;;;;;3.10;96.44;101799.43;639379;224;24918;-75
2021/03/02 07:11:17;;;;;;;17.27;9.33;;;;;;;3.23;96.59;101798.48;648415;217;29832;-77
2021/03/02 07:13:45;;;;;;;16.33;9.03;;;;;;;3.33;96.52;101804.95;637138;225;24942;-78
2021/03/02 07:16:13;;;;;;;16.03;9.87;;;;;;;3.55;95.99;101804.52;638190;225;24904;-76
2021/03/02 07:18:41;;;;;;;18.73;9.77;;;;;;;3.63;95.57;101803.36;625031;229;24940;-76
2021/03/02 07:21:09;;;;;;;15.80;9.73;;;;;;;3.74;94.90;101799.46;626556;228;24957;-77
2021/03/02 07:23:37;;;;;;;17.40;10.17;;;;;;;3.90;94.47;101803.98;637151;224;24877;-77
2021/03/02 07:26:04;;;;;;;17.10;11.18;;;;;;;4.13;93.58;101806.00;626515;225;32760;-76
2021/03/02 07:28:33;;;;;;;21.67;11.17;;;;;;;4.15;93.03;101805.93;626177;228;23860;-77
2021/03/02 07:31:01;;;;;;;16.47;10.90;;;;;;;4.42;92.43;101800.05;615043;229;33371;-77
2021/03/02 07:33:29;;;;;;;18.55;11.30;;;;;;;4.67;91.01;101795.95;611433;229;33543;-77
2021/03/02 07:35:58;;;;;;;16.60;11.30;;;;;;;4.62;91.98;101803.87;621434;229;23828;-78
2021/03/02 07:38:26;;;;;;;18.07;11.20;;;;;;;4.55;92.01;101803.77;623770;229;24936;-76
2021/03/02 07:40:54;;;;;;;18.30;10.97;;;;;;;4.50;92.32;101804.41;637262;225;24904;-76
2021/03/02 07:43:27;;;;;;;24.20;10.93;;;;;;;4.59;92.02;101811.74;624187;229;24951;-76
2021/03/02 07:45:56;;;;;;;16.43;10.83;;;;;;;4.66;92.31;101811.88;624070;230;24946;-77
2021/03/02 07:48:27;;;;;;;16.43;10.40;;;;;;;4.69;91.24;101814.76;631626;225;24948;-76
2021/03/02 07:51:16;;;;;;;16.87;11.80;;;;;;;4.74;91.43;101816.67;636340;225;24880;-77
2021/03/02 07:53:44;;;;;;;15.40;9.63;;;;;;;4.75;91.92;101814.02;624654;229;24954;-76
2021/03/02 07:56:21;;;;;;;17.47;11.47;;;;;;;4.98;92.18;101822.02;638182;225;24906;-78
2021/03/02 07:58:59;;;;;;;20.33;11.30;;;;;;;5.09;91.78;101817.67;617307;229;26331;-77
2021/03/02 08:01:27;;;;;;;17.83;10.53;;;;;;;5.14;91.66;101820.87;636709;224;24866;-77
2021/03/02 08:04:03;;;;;;;21.57;10.50;;;;;;;5.38;90.80;101821.48;637885;224;24918;-77
2021/03/02 08:06:34;;;;;;;21.37;12.70;;;;;;;5.38;90.58;101821.48;623532;229;25265;-77
2021/03/02 08:09:09;;;;;;;18.93;11.50;;;;;;;5.44;89.00;101814.73;637002;225;24873;-77
2021/03/02 08:11:37;;;;;;;20.60;11.60;;;;;;;5.41;89.58;101814.05;623320;227;24914;-76
2021/03/02 08:14:24;;;;;;;19.73;11.67;;;;;;;5.55;90.17;101818.09;637364;225;24873;-76
2021/03/02 08:16:53;;;;;;;17.07;11.63;;;;;;;5.62;88.23;101813.84;624746;229;24926;-76
2021/03/02 08:19:32;;;;;;;18.87;11.30;;;;;;;5.78;88.38;101813.97;624835;229;24916;-76
2021/03/02 08:22:00;;;;;;;19.97;11.70;;;;;;;5.90;88.24;101821.11;638901;222;24900;-77
2021/03/02 08:24:50;;;;;;;19.57;11.60;;;;;;;5.77;88.09;101819.17;639447;224;24896;-77
2021/03/02 08:27:18;;;;;;;20.80;11.93;;;;;;;6.00;87.29;101820.67;627084;228;25007;-77
2021/03/02 08:29:49;;;;;;;25.90;14.40;;;;;;;6.12;87.77;101827.36;626067;228;24917;-76
2021/03/02 08:32:18;;;;;;;20.77;13.03;;;;;;;6.19;86.34;101820.98;619575;229;24980;-76
2021/03/02 08:34:46;;;;;;;20.70;13.17;;;;;;;6.46;86.98;101818.72;615612;229;24957;-77
2021/03/02 08:37:14;;;;;;;21.20;13.80;;;;;;;6.55;84.78;101812.25;620004;229;24968;-77
2021/03/02 08:39:42;;;;;;;19.17;11.90;;;;;;;6.43;84.80;101814.17;634613;225;24898;-78
2021/03/02 08:42:10;;;;;;;24.63;14.70;;;;;;;6.88;83.66;101818.69;619232;229;32899;-77
2021/03/02 08:44:38;;;;;;;19.90;12.30;;;;;;;6.73;82.94;101817.75;625469;229;24967;-76
2021/03/02 08:47:06;;;;;;;16.57;11.70;;;;;;;6.79;81.54;101807.56;619892;229;32891;-77
2021/03/02 08:49:34;;;;;;;16.73;11.10;;;;;;;6.80;81.79;101812.64;627722;225;23777;-77
2021/03/02 08:52:02;;;;;;;29.63;11.40;;;;;;;6.81;80.62;101807.02;630776;225;24919;-77
2021/03/02 08:54:30;;;;;;;16.30;10.27;;;;;;;7.02;80.83;101808.44;637916;225;24894;-77
2021/03/02 08:57:01;;;;;;;19.60;11.17;;;;;;;7.25;80.92;101807.20;626211;228;24927;-77
2021/03/02 08:59:30;;;;;;;19.03;11.27;;;;;;;7.42;80.94;101810.97;625087;229;24912;-77
2021/03/02 09:01:58;;;;;;;17.57;10.60;;;;;;;7.40;79.99;101806.34;619029;229;26031;-77
2021/03/02 09:04:29;;;;;;;17.30;10.57;;;;;;;7.42;80.16;101801.91;636756;225;24881;-76
2021/03/02 09:06:57;;;;;;;18.10;10.67;;;;;;;7.26;79.37;101806.73;637852;224;24870;-77
2021/03/02 09:09:25;;;;;;;21.30;10.50;;;;;;;7.42;78.75;101807.55;636980;225;24863;-77
2021/03/02 09:11:53;;;;;;;18.47;11.63;;;;;;;7.70;80.18;101806.83;636084;225;24887;-76
2021/03/02 09:14:21;;;;;;;18.83;11.17;;;;;;;7.74;78.29;101809.19;635714;225;24880;-77
2021/03/02 09:16:49;;;;;;;17.25;11.43;;;;;;;7.98;76.78;101802.20;619490;225;32901;-77
2021/03/02 09:19:19;;;;;;;15.63;10.70;;;;;;;7.91;78.12;101803.48;637737;225;23737;-77
2021/03/02 09:21:49;;;;;;;20.50;10.20;;;;;;;7.98;76.62;101808.67;625281;229;24918;-77
2021/03/02 09:24:17;;;;;;;17.63;10.13;;;;;;;8.01;77.25;101813.21;635206;225;24905;-76
2021/03/02 09:26:51;;;;;;;15.70;11.90;;;;;;;8.51;76.33;101812.48;619408;229;32937;-76
2021/03/02 09:29:19;;;;;;;16.73;11.60;;;;;;;8.67;75.74;101813.69;618906;229;32895;-78
2021/03/02 09:31:47;;;;;;;21.43;12.10;;;;;;;8.59;75.48;101804.62;625369;229;23773;-77
2021/03/02 09:34:15;;;;;;;16.30;10.23;;;;;;;8.58;74.71;101808.58;627370;227;24924;-77
2021/03/02 09:36:43;;;;;;;23.80;11.70;;;;;;;8.87;74.76;101800.34;626344;229;24935;-75
2021/03/02 09:39:18;;;;;;;15.37;10.70;;;;;;;9.16;74.75;101799.36;636765;224;24973;-77
2021/03/02 09:41:47;;;;;;;15.67;9.70;;;;;;;9.07;73.64;101797.33;625630;229;24916;-77
2021/03/02 09:44:22;;;;;;;15.50;9.40;;;;;;;8.97;73.77;101792.80;619142;226;24953;-77
2021/03/02 09:46:50;;;;;;;15.13;10.23;;;;;;;9.04;72.37;101792.80;625883;229;24970;-77
2021/03/02 09:49:29;;;;;;;15.43;9.87;;;;;;;9.36;74.31;101793.36;637028;225;24874;-77
2021/03/02 09:51:57;;;;;;;16.23;10.73;;;;;;;9.50;71.64;101791.53;637105;225;24885;-77
2021/03/02 09:54:24;;;;;;;14.43;10.47;;;;;;;9.98;70.30;101791.84;619903;229;32891;-78
2021/03/02 09:56:56;;;;;;;17.17;10.80;;;;;;;9.96;70.50;101793.70;623506;229;24949;-78
2021/03/02 09:59:24;;;;;;;13.80;10.37;;;;;;;10.39;70.58;101795.58;629356;225;24906;-77
2021/03/02 10:01:52;;;;;;;15.27;10.33;;;;;;;10.18;68.89;101788.38;629657;225;24923;-75
2021/03/02 10:04:20;;;;;;;18.10;10.23;;;;;;;10.03;70.21;101791.08;625021;229;24934;-74
2021/03/02 10:06:48;;;;;;;21.07;11.13;;;;;;;10.24;69.45;101795.32;624196;229;25235;-75
2021/03/02 10:09:21;;;;;;;17.65;11.35;;;;;;;10.56;68.75;101790.54;631076;225;32753;-75
2021/03/02 10:11:49;;;;;;;14.50;10.57;;;;;;;10.40;68.85;101782.10;625327;229;23968;-75
2021/03/02 10:14:17;;;;;;;18.00;11.70;;;;;;;10.67;68.96;101789.77;614658;230;24040;-74
2021/03/02 10:16:48;;;;;;;16.70;11.43;;;;;;;11.21;66.41;101788.95;628882;225;43912;-75
2021/03/02 10:19:17;;;;;;;16.20;10.30;;;;;;;10.85;67.07;101787.68;625094;229;23756;-76
2021/03/02 10:21:45;;;;;;;18.00;11.53;;;;;;;10.93;67.83;101785.34;615984;229;24975;-75
2021/03/02 10:24:18;;;;;;;18.73;10.77;;;;;;;10.54;66.81;101786.36;635341;225;25100;-74
2021/03/02 10:26:46;;;;;;;16.20;10.07;;;;;;;10.79;67.00;101791.52;625586;225;24928;-75
2021/03/02 10:29:13;;;;;;;17.53;11.20;;;;;;;10.84;66.89;101788.59;617970;229;24949;-77
2021/03/02 10:31:41;;;;;;;17.03;10.57;;;;;;;10.95;66.29;101788.67;630718;225;24919;-75
2021/03/02 10:34:09;;;;;;;16.40;11.20;;;;;;;10.95;66.25;101786.89;626158;225;24963;-75
2021/03/02 10:36:37;;;;;;;15.90;9.90;;;;;;;10.72;67.80;101786.40;635444;225;24870;-75
2021/03/02 10:39:05;;;;;;;15.77;10.80;;;;;;;10.56;67.74;101787.94;624913;229;24939;-74
2021/03/02 10:41:33;;;;;;;15.90;11.40;;;;;;;10.94;68.02;101790.44;620974;228;32902;-78
2021/03/02 10:44:01;;;;;;;16.87;11.17;;;;;;;10.76;67.16;101788.31;624947;228;24916;-73
2021/03/02 10:46:29;;;;;;;13.27;10.00;;;;;;;10.79;68.70;101791.52;626349;229;24914;-75
2021/03/02 10:48:57;;;;;;;19.33;10.83;;;;;;;10.73;67.96;101788.53;639059;225;24884;-76
2021/03/02 10:51:25;;;;;;;17.80;10.90;;;;;;;10.91;67.57;101795.04;637811;225;24924;-77
2021/03/02 10:53:53;;;;;;;18.30;10.03;;;;;;;11.00;67.56;101793.10;625574;229;24902;-75
2021/03/02 10:56:21;;;;;;;15.10;10.33;;;;;;;11.03;67.52;101801.98;624336;229;24904;-75
2021/03/02 10:58:49;;;;;;;14.33;10.93;;;;;;;10.82;67.27;101796.98;624932;229;24908;-75
2021/03/02 11:01:17;;;;;;;16.40;11.20;;;;;;;11.03;68.67;101796.78;626038;229;24907;-76
2021/03/02 11:03:45;;;;;;;21.10;10.93;;;;;;;11.06;65.92;101790.05;625282;228;24916;-78
2021/03/02 11:06:13;;;;;;;15.80;10.83;;;;;;;11.15;67.84;101787.27;626429;228;24907;-74
2021/03/02 11:08:41;;;;;;;12.90;10.10;;;;;;;11.37;66.33;101784.76;623333;229;24920;-75
2021/03/02 11:11:09;;;;;;;13.90;9.83;;;;;;;11.65;64.79;101780.97;624529;229;24913;-75
2021/03/02 11:13:37;;;;;;;15.43;11.33;;;;;;;11.65;65.42;101773.63;625056;229;24903;-75
2021/03/02 11:16:05;;;;;;;16.47;11.33;;;;;;;11.70;65.01;101772.83;633024;225;24867;-75
2021/03/02 11:18:33;;;;;;;17.77;11.50;;;;;;;11.93;65.95;101777.64;626260;229;24935;-75
2021/03/02 11:21:01;;;;;;;19.47;11.33;;;;;;;11.89;65.46;101781.79;636838;224;24864;-75
2021/03/02 11:23:29;;;;;;;16.43;10.53;;;;;;;11.73;65.11;101768.69;625201;229;24921;-74
2021/03/02 11:25:57;;;;;;;17.27;11.53;;;;;;;11.59;64.36;101760.11;624711;229;25053;-74
2021/03/02 11:28:25;;;;;;;21.50;11.03;;;;;;;11.78;65.02;101756.95;638716;224;23886;-74